sensor_id;sensor_type;location;lat;lon;timestamp;temperature;humidity
31765;DHT22;18338;53.240;8.798;2022-12-07T00:01:46;4.30;99.90
31765;DHT22;18338;53.240;8.798;2022-12-07T00:04:15;4.30;99.90
31765;DHT22;18338;53.240;8.798;2022-12-07T00:06:45;4.20;99.90
31765;DHT22;18338;53.240;8.798;2022-12-07T00:09:14;4.10;99.90
31765;DHT22;18338;53.240;8.798;2022-12-07T00:11:43;4.10;99.90
31765;DHT22;18338;53.240;8.798;2022-12-07T00:14:13;4.20;99.90
31765;DHT22;18338;53.240;8.798;2022-12-07T00:20:28;4.30;99.90
31765;DHT22;18338;53.240;8.798;2022-12-07T00:23:06;4.40;99.90
31765;DHT22;18338;53.240;8.798;2022-12-07T00:33:26;4.50;99.90
31765;DHT22;18338;53.240;8.798;2022-12-07T00:45:03;4.10;99.90
31765;DHT22;18338;53.240;8.798;2022-12-07T00:48:12;4.00;99.90
31765;DHT22;18338;53.240;8.798;2022-12-07T00:50:39;3.80;99.90
31765;DHT22;18338;53.240;8.798;2022-12-07T00:53:06;3.90;99.90
31765;DHT22;18338;53.240;8.798;2022-12-07T00:55:35;4.00;99.90
31765;DHT22;18338;53.240;8.798;2022-12-07T00:58:08;4.00;99.90
31765;DHT22;18338;53.240;8.798;2022-12-07T01:04:19;4.10;99.90
31765;DHT22;18338;53.240;8.798;2022-12-07T01:06:46;4.10;99.90
31765;DHT22;18338;53.240;8.798;2022-12-07T01:09:13;4.10;99.90
31765;DHT22;18338;53.240;8.798;2022-12-07T01:11:40;4.20;99.90
31765;DHT22;18338;53.240;8.798;2022-12-07T01:14:16;4.20;99.90
31765;DHT22;18338;53.240;8.798;2022-12-07T01:16:42;4.10;99.90
31765;DHT22;18338;53.240;8.798;2022-12-07T01:19:09;4.10;99.90
31765;DHT22;18338;53.240;8.798;2022-12-07T01:21:38;3.90;99.90
31765;DHT22;18338;53.240;8.798;2022-12-07T01:24:07;3.90;99.90
31765;DHT22;18338;53.240;8.798;2022-12-07T01:26:35;3.80;99.90
31765;DHT22;18338;53.240;8.798;2022-12-07T01:29:02;3.80;99.90
31765;DHT22;18338;53.240;8.798;2022-12-07T01:31:29;3.80;99.90
31765;DHT22;18338;53.240;8.798;2022-12-07T01:33:58;3.90;99.90
31765;DHT22;18338;53.240;8.798;2022-12-07T01:36:31;3.90;99.90
31765;DHT22;18338;53.240;8.798;2022-12-07T01:39:01;3.80;99.90
31765;DHT22;18338;53.240;8.798;2022-12-07T01:41:30;3.80;99.90
31765;DHT22;18338;53.240;8.798;2022-12-07T01:46:55;3.70;99.90
31765;DHT22;18338;53.240;8.798;2022-12-07T01:52:16;3.60;99.90
31765;DHT22;18338;53.240;8.798;2022-12-07T01:54:46;3.60;99.90
31765;DHT22;18338;53.240;8.798;2022-12-07T01:57:15;3.60;99.90
31765;DHT22;18338;53.240;8.798;2022-12-07T01:59:43;3.50;99.90
31765;DHT22;18338;53.240;8.798;2022-12-07T02:02:35;3.50;99.90
31765;DHT22;18338;53.240;8.798;2022-12-07T02:05:04;3.40;99.90
31765;DHT22;18338;53.240;8.798;2022-12-07T02:07:34;3.40;99.90
31765;DHT22;18338;53.240;8.798;2022-12-07T02:10:35;3.40;99.90
31765;DHT22;18338;53.240;8.798;2022-12-07T02:13:19;3.50;99.90
31765;DHT22;18338;53.240;8.798;2022-12-07T02:21:55;3.40;99.90
31765;DHT22;18338;53.240;8.798;2022-12-07T02:25:22;3.40;99.90
31765;DHT22;18338;53.240;8.798;2022-12-07T02:30:31;3.30;99.90
31765;DHT22;18338;53.240;8.798;2022-12-07T02:33:07;3.30;99.90
31765;DHT22;18338;53.240;8.798;2022-12-07T02:35:48;3.30;99.90
31765;DHT22;18338;53.240;8.798;2022-12-07T02:38:31;3.30;99.90
31765;DHT22;18338;53.240;8.798;2022-12-07T02:43:39;3.40;99.90
31765;DHT22;18338;53.240;8.798;2022-12-07T02:46:12;3.40;99.90
31765;DHT22;18338;53.240;8.798;2022-12-07T02:48:41;3.40;99.90
31765;DHT22;18338;53.240;8.798;2022-12-07T02:51:09;3.50;99.90
31765;DHT22;18338;53.240;8.798;2022-12-07T02:53:39;3.40;99.90
31765;DHT22;18338;53.240;8.798;2022-12-07T03:17:59;3.60;99.90
31765;DHT22;18338;53.240;8.798;2022-12-07T03:20:27;3.60;99.90
31765;DHT22;18338;53.240;8.798;2022-12-07T03:22:56;3.60;99.90
31765;DHT22;18338;53.240;8.798;2022-12-07T03:25:23;3.70;99.90
31765;DHT22;18338;53.240;8.798;2022-12-07T03:28:01;3.60;99.90
31765;DHT22;18338;53.240;8.798;2022-12-07T03:30:50;3.60;99.90
31765;DHT22;18338;53.240;8.798;2022-12-07T03:33:26;3.70;99.90
31765;DHT22;18338;53.240;8.798;2022-12-07T03:38:38;3.70;99.90
31765;DHT22;18338;53.240;8.798;2022-12-07T03:41:11;3.70;99.90
31765;DHT22;18338;53.240;8.798;2022-12-07T03:43:40;3.80;99.90
31765;DHT22;18338;53.240;8.798;2022-12-07T03:51:54;3.40;99.90
31765;DHT22;18338;53.240;8.798;2022-12-07T03:54:44;3.30;99.90
31765;DHT22;18338;53.240;8.798;2022-12-07T03:57:12;3.20;99.90
31765;DHT22;18338;53.240;8.798;2022-12-07T03:59:40;3.20;99.90
31765;DHT22;18338;53.240;8.798;2022-12-07T04:02:08;3.00;99.90
31765;DHT22;18338;53.240;8.798;2022-12-07T04:04:37;3.00;99.90
31765;DHT22;18338;53.240;8.798;2022-12-07T04:07:04;3.00;99.90
31765;DHT22;18338;53.240;8.798;2022-12-07T04:09:31;3.20;99.90
31765;DHT22;18338;53.240;8.798;2022-12-07T04:11:57;3.30;99.90
31765;DHT22;18338;53.240;8.798;2022-12-07T04:14:24;3.30;99.90
31765;DHT22;18338;53.240;8.798;2022-12-07T04:16:56;3.40;99.90
31765;DHT22;18338;53.240;8.798;2022-12-07T04:19:28;3.40;99.90
31765;DHT22;18338;53.240;8.798;2022-12-07T04:21:56;3.50;99.90
31765;DHT22;18338;53.240;8.798;2022-12-07T04:24:23;3.60;99.90
31765;DHT22;18338;53.240;8.798;2022-12-07T04:26:50;3.60;99.90
31765;DHT22;18338;53.240;8.798;2022-12-07T04:29:18;3.60;99.90
31765;DHT22;18338;53.240;8.798;2022-12-07T04:31:45;3.70;99.90
31765;DHT22;18338;53.240;8.798;2022-12-07T04:34:13;3.70;99.90
31765;DHT22;18338;53.240;8.798;2022-12-07T04:36:40;3.70;99.90
31765;DHT22;18338;53.240;8.798;2022-12-07T04:39:13;3.60;99.90
31765;DHT22;18338;53.240;8.798;2022-12-07T04:41:43;3.60;99.90
31765;DHT22;18338;53.240;8.798;2022-12-07T04:44:11;3.70;99.90
31765;DHT22;18338;53.240;8.798;2022-12-07T04:46:41;3.70;99.90
31765;DHT22;18338;53.240;8.798;2022-12-07T04:49:09;3.80;99.90
31765;DHT22;18338;53.240;8.798;2022-12-07T04:51:35;3.80;99.90
31765;DHT22;18338;53.240;8.798;2022-12-07T04:54:02;3.80;99.90
31765;DHT22;18338;53.240;8.798;2022-12-07T04:56:29;3.80;99.90
31765;DHT22;18338;53.240;8.798;2022-12-07T04:58:56;3.90;99.90
31765;DHT22;18338;53.240;8.798;2022-12-07T05:01:23;3.80;99.90
31765;DHT22;18338;53.240;8.798;2022-12-07T05:03:50;3.80;99.90
31765;DHT22;18338;53.240;8.798;2022-12-07T05:06:17;3.60;99.90
31765;DHT22;18338;53.240;8.798;2022-12-07T05:08:44;3.50;99.90
31765;DHT22;18338;53.240;8.798;2022-12-07T05:11:12;3.40;99.90
31765;DHT22;18338;53.240;8.798;2022-12-07T05:13:59;3.50;99.90
31765;DHT22;18338;53.240;8.798;2022-12-07T05:16:29;3.50;99.90
31765;DHT22;18338;53.240;8.798;2022-12-07T05:18:56;3.40;99.90
31765;DHT22;18338;53.240;8.798;2022-12-07T05:21:24;3.50;99.90
31765;DHT22;18338;53.240;8.798;2022-12-07T05:23:51;3.40;99.90
31765;DHT22;18338;53.240;8.798;2022-12-07T05:26:18;3.50;99.90
31765;DHT22;18338;53.240;8.798;2022-12-07T05:28:45;3.40;99.90
31765;DHT22;18338;53.240;8.798;2022-12-07T05:31:15;3.50;99.90
31765;DHT22;18338;53.240;8.798;2022-12-07T05:33:42;3.50;99.90
31765;DHT22;18338;53.240;8.798;2022-12-07T05:36:09;3.40;99.90
31765;DHT22;18338;53.240;8.798;2022-12-07T05:38:36;3.40;99.90
31765;DHT22;18338;53.240;8.798;2022-12-07T05:41:06;3.30;99.90
31765;DHT22;18338;53.240;8.798;2022-12-07T05:43:33;3.40;99.90
31765;DHT22;18338;53.240;8.798;2022-12-07T05:46:00;3.40;99.90
31765;DHT22;18338;53.240;8.798;2022-12-07T05:48:27;3.30;99.90
31765;DHT22;18338;53.240;8.798;2022-12-07T05:50:54;3.30;99.90
31765;DHT22;18338;53.240;8.798;2022-12-07T05:53:20;3.40;99.90
31765;DHT22;18338;53.240;8.798;2022-12-07T05:55:49;3.40;99.90
31765;DHT22;18338;53.240;8.798;2022-12-07T05:58:15;3.60;99.90
31765;DHT22;18338;53.240;8.798;2022-12-07T06:01:01;3.60;99.90
31765;DHT22;18338;53.240;8.798;2022-12-07T06:03:28;3.70;99.90
31765;DHT22;18338;53.240;8.798;2022-12-07T06:05:55;3.60;99.90
31765;DHT22;18338;53.240;8.798;2022-12-07T06:08:21;3.60;99.90
31765;DHT22;18338;53.240;8.798;2022-12-07T06:10:48;3.50;99.90
31765;DHT22;18338;53.240;8.798;2022-12-07T06:13:35;3.50;99.90
31765;DHT22;18338;53.240;8.798;2022-12-07T06:16:02;3.40;99.90
31765;DHT22;18338;53.240;8.798;2022-12-07T06:18:29;3.40;99.90
31765;DHT22;18338;53.240;8.798;2022-12-07T06:20:55;3.40;99.90
31765;DHT22;18338;53.240;8.798;2022-12-07T06:23:22;3.40;99.90
31765;DHT22;18338;53.240;8.798;2022-12-07T06:25:49;3.40;99.90
31765;DHT22;18338;53.240;8.798;2022-12-07T06:28:16;3.40;99.90
31765;DHT22;18338;53.240;8.798;2022-12-07T06:30:43;3.40;99.90
31765;DHT22;18338;53.240;8.798;2022-12-07T06:33:09;3.40;99.90
31765;DHT22;18338;53.240;8.798;2022-12-07T06:35:36;3.40;99.90
31765;DHT22;18338;53.240;8.798;2022-12-07T06:38:03;3.40;99.90
31765;DHT22;18338;53.240;8.798;2022-12-07T06:40:30;3.30;99.90
31765;DHT22;18338;53.240;8.798;2022-12-07T06:42:56;3.30;99.90
31765;DHT22;18338;53.240;8.798;2022-12-07T06:45:23;3.20;99.90
31765;DHT22;18338;53.240;8.798;2022-12-07T06:47:50;3.20;99.90
31765;DHT22;18338;53.240;8.798;2022-12-07T06:50:17;3.20;99.90
31765;DHT22;18338;53.240;8.798;2022-12-07T06:52:44;3.20;99.90
31765;DHT22;18338;53.240;8.798;2022-12-07T06:55:10;3.20;99.90
31765;DHT22;18338;53.240;8.798;2022-12-07T06:57:37;3.30;99.90
31765;DHT22;18338;53.240;8.798;2022-12-07T07:00:05;3.30;99.90
31765;DHT22;18338;53.240;8.798;2022-12-07T07:02:32;3.40;99.90
31765;DHT22;18338;53.240;8.798;2022-12-07T07:04:59;3.40;99.90
31765;DHT22;18338;53.240;8.798;2022-12-07T07:07:26;3.40;99.90
31765;DHT22;18338;53.240;8.798;2022-12-07T07:09:52;3.50;99.90
31765;DHT22;18338;53.240;8.798;2022-12-07T07:12:19;3.40;99.90
31765;DHT22;18338;53.240;8.798;2022-12-07T07:14:46;3.40;99.90
31765;DHT22;18338;53.240;8.798;2022-12-07T07:17:13;3.30;99.90
31765;DHT22;18338;53.240;8.798;2022-12-07T07:19:40;3.20;99.90
31765;DHT22;18338;53.240;8.798;2022-12-07T07:22:07;3.20;99.90
31765;DHT22;18338;53.240;8.798;2022-12-07T07:24:34;3.20;99.90
31765;DHT22;18338;53.240;8.798;2022-12-07T07:27:01;3.20;99.90
31765;DHT22;18338;53.240;8.798;2022-12-07T07:29:27;3.20;99.90
31765;DHT22;18338;53.240;8.798;2022-12-07T07:31:54;3.10;99.90
31765;DHT22;18338;53.240;8.798;2022-12-07T07:34:21;3.10;99.90
31765;DHT22;18338;53.240;8.798;2022-12-07T07:36:48;3.20;99.90
31765;DHT22;18338;53.240;8.798;2022-12-07T07:39:14;3.10;99.90
31765;DHT22;18338;53.240;8.798;2022-12-07T07:41:41;3.10;99.90
31765;DHT22;18338;53.240;8.798;2022-12-07T07:44:09;3.10;99.90
31765;DHT22;18338;53.240;8.798;2022-12-07T07:46:36;3.10;99.90
31765;DHT22;18338;53.240;8.798;2022-12-07T07:49:03;3.10;99.90
31765;DHT22;18338;53.240;8.798;2022-12-07T07:51:30;3.10;99.90
31765;DHT22;18338;53.240;8.798;2022-12-07T07:53:56;3.20;99.90
31765;DHT22;18338;53.240;8.798;2022-12-07T07:56:23;3.10;99.90
31765;DHT22;18338;53.240;8.798;2022-12-07T07:58:54;3.10;99.90
31765;DHT22;18338;53.240;8.798;2022-12-07T08:01:21;3.10;99.90
31765;DHT22;18338;53.240;8.798;2022-12-07T08:03:48;3.10;99.90
31765;DHT22;18338;53.240;8.798;2022-12-07T08:06:15;3.10;99.90
31765;DHT22;18338;53.240;8.798;2022-12-07T08:08:41;3.10;99.90
31765;DHT22;18338;53.240;8.798;2022-12-07T08:11:09;3.20;99.90
31765;DHT22;18338;53.240;8.798;2022-12-07T08:13:36;3.20;99.90
31765;DHT22;18338;53.240;8.798;2022-12-07T08:16:05;3.20;99.90
31765;DHT22;18338;53.240;8.798;2022-12-07T08:18:35;3.20;99.90
31765;DHT22;18338;53.240;8.798;2022-12-07T08:21:03;3.30;99.90
31765;DHT22;18338;53.240;8.798;2022-12-07T08:23:30;3.30;99.90
31765;DHT22;18338;53.240;8.798;2022-12-07T08:26:08;3.30;99.90
31765;DHT22;18338;53.240;8.798;2022-12-07T08:28:36;3.40;99.90
31765;DHT22;18338;53.240;8.798;2022-12-07T08:31:07;3.30;99.90
31765;DHT22;18338;53.240;8.798;2022-12-07T08:33:35;3.30;99.90
31765;DHT22;18338;53.240;8.798;2022-12-07T08:36:08;3.30;99.90
31765;DHT22;18338;53.240;8.798;2022-12-07T08:38:37;3.20;99.90
31765;DHT22;18338;53.240;8.798;2022-12-07T08:41:05;3.20;99.90
31765;DHT22;18338;53.240;8.798;2022-12-07T08:43:32;3.30;99.90
31765;DHT22;18338;53.240;8.798;2022-12-07T08:46:19;3.40;99.90
31765;DHT22;18338;53.240;8.798;2022-12-07T08:49:13;3.50;99.90
31765;DHT22;18338;53.240;8.798;2022-12-07T08:51:40;3.60;99.90
31765;DHT22;18338;53.240;8.798;2022-12-07T08:54:10;3.70;99.90
31765;DHT22;18338;53.240;8.798;2022-12-07T08:56:38;3.80;99.90
31765;DHT22;18338;53.240;8.798;2022-12-07T08:59:05;4.00;99.90
31765;DHT22;18338;53.240;8.798;2022-12-07T09:01:33;4.00;99.90
31765;DHT22;18338;53.240;8.798;2022-12-07T09:04:00;4.10;99.90
31765;DHT22;18338;53.240;8.798;2022-12-07T09:06:27;4.10;99.90
31765;DHT22;18338;53.240;8.798;2022-12-07T09:08:57;4.10;99.90
31765;DHT22;18338;53.240;8.798;2022-12-07T09:11:25;4.30;99.90
31765;DHT22;18338;53.240;8.798;2022-12-07T09:13:55;4.30;99.90
31765;DHT22;18338;53.240;8.798;2022-12-07T09:16:23;4.40;99.90
31765;DHT22;18338;53.240;8.798;2022-12-07T09:18:50;4.30;99.90
31765;DHT22;18338;53.240;8.798;2022-12-07T09:21:16;4.30;99.90
31765;DHT22;18338;53.240;8.798;2022-12-07T09:23:43;4.40;99.90
31765;DHT22;18338;53.240;8.798;2022-12-07T09:26:10;4.40;99.90
31765;DHT22;18338;53.240;8.798;2022-12-07T09:28:37;4.50;99.90
31765;DHT22;18338;53.240;8.798;2022-12-07T09:31:04;4.40;99.90
31765;DHT22;18338;53.240;8.798;2022-12-07T09:33:59;4.50;99.90
31765;DHT22;18338;53.240;8.798;2022-12-07T09:36:27;4.80;99.90
31765;DHT22;18338;53.240;8.798;2022-12-07T09:38:54;5.30;99.90
31765;DHT22;18338;53.240;8.798;2022-12-07T09:41:22;5.60;99.90
31765;DHT22;18338;53.240;8.798;2022-12-07T09:43:49;6.20;99.90
31765;DHT22;18338;53.240;8.798;2022-12-07T09:46:19;6.70;99.90
31765;DHT22;18338;53.240;8.798;2022-12-07T09:48:47;6.90;99.90
31765;DHT22;18338;53.240;8.798;2022-12-07T09:51:20;6.60;99.90
31765;DHT22;18338;53.240;8.798;2022-12-07T09:53:52;6.00;99.90
31765;DHT22;18338;53.240;8.798;2022-12-07T09:56:20;6.10;99.90
31765;DHT22;18338;53.240;8.798;2022-12-07T09:58:48;6.40;99.90
31765;DHT22;18338;53.240;8.798;2022-12-07T10:01:17;7.10;99.90
31765;DHT22;18338;53.240;8.798;2022-12-07T10:04:22;6.90;99.90
31765;DHT22;18338;53.240;8.798;2022-12-07T10:06:41;6.60;99.90
31765;DHT22;18338;53.240;8.798;2022-12-07T10:09:12;6.20;99.90
31765;DHT22;18338;53.240;8.798;2022-12-07T10:14:30;5.60;99.90
31765;DHT22;18338;53.240;8.798;2022-12-07T10:17:38;5.30;99.90
31765;DHT22;18338;53.240;8.798;2022-12-07T10:20:26;5.40;99.90
31765;DHT22;18338;53.240;8.798;2022-12-07T10:23:02;5.40;99.90
31765;DHT22;18338;53.240;8.798;2022-12-07T10:25:31;5.40;99.90
31765;DHT22;18338;53.240;8.798;2022-12-07T10:30:30;5.30;99.90
31765;DHT22;18338;53.240;8.798;2022-12-07T10:32:58;5.60;99.90
31765;DHT22;18338;53.240;8.798;2022-12-07T10:35:29;6.20;99.90
31765;DHT22;18338;53.240;8.798;2022-12-07T10:37:59;6.40;99.90
31765;DHT22;18338;53.240;8.798;2022-12-07T10:40:33;6.40;99.90
31765;DHT22;18338;53.240;8.798;2022-12-07T10:46:19;6.50;99.90
31765;DHT22;18338;53.240;8.798;2022-12-07T10:48:51;6.50;99.90
31765;DHT22;18338;53.240;8.798;2022-12-07T10:51:45;6.40;99.90
31765;DHT22;18338;53.240;8.798;2022-12-07T10:54:39;6.00;99.90
31765;DHT22;18338;53.240;8.798;2022-12-07T11:02:29;5.80;99.90
31765;DHT22;18338;53.240;8.798;2022-12-07T11:05:23;5.70;99.90
31765;DHT22;18338;53.240;8.798;2022-12-07T11:19:18;5.60;99.90
31765;DHT22;18338;53.240;8.798;2022-12-07T11:24:41;6.00;99.90
31765;DHT22;18338;53.240;8.798;2022-12-07T11:27:37;6.40;99.90
31765;DHT22;18338;53.240;8.798;2022-12-07T11:35:59;6.60;99.90
31765;DHT22;18338;53.240;8.798;2022-12-07T11:38:46;6.40;99.90
31765;DHT22;18338;53.240;8.798;2022-12-07T11:41:20;6.10;99.90
31765;DHT22;18338;53.240;8.798;2022-12-07T11:46:51;5.00;99.90
31765;DHT22;18338;53.240;8.798;2022-12-07T11:49:43;4.70;99.90
31765;DHT22;18338;53.240;8.798;2022-12-07T11:52:20;4.40;99.90
31765;DHT22;18338;53.240;8.798;2022-12-07T11:54:50;4.30;99.90
31765;DHT22;18338;53.240;8.798;2022-12-07T11:57:28;4.20;99.90
31765;DHT22;18338;53.240;8.798;2022-12-07T12:00:05;4.10;99.90
31765;DHT22;18338;53.240;8.798;2022-12-07T12:02:59;4.10;99.90
31765;DHT22;18338;53.240;8.798;2022-12-07T12:05:25;4.10;99.90
31765;DHT22;18338;53.240;8.798;2022-12-07T12:08:18;4.20;99.90
31765;DHT22;18338;53.240;8.798;2022-12-07T12:14:21;4.30;99.90
31765;DHT22;18338;53.240;8.798;2022-12-07T12:17:18;4.20;99.90
31765;DHT22;18338;53.240;8.798;2022-12-07T12:20:23;4.10;99.90
31765;DHT22;18338;53.240;8.798;2022-12-07T12:23:05;4.00;99.90
31765;DHT22;18338;53.240;8.798;2022-12-07T12:25:41;3.80;99.90
31765;DHT22;18338;53.240;8.798;2022-12-07T12:34:01;3.20;99.90
31765;DHT22;18338;53.240;8.798;2022-12-07T12:39:13;3.20;99.90
31765;DHT22;18338;53.240;8.798;2022-12-07T12:47:02;3.50;99.90
31765;DHT22;18338;53.240;8.798;2022-12-07T12:49:41;3.60;99.90
31765;DHT22;18338;53.240;8.798;2022-12-07T12:52:45;3.60;99.90
31765;DHT22;18338;53.240;8.798;2022-12-07T12:55:18;3.70;99.90
31765;DHT22;18338;53.240;8.798;2022-12-07T13:00:47;4.00;99.90
31765;DHT22;18338;53.240;8.798;2022-12-07T13:03:28;4.00;99.90
31765;DHT22;18338;53.240;8.798;2022-12-07T13:06:19;4.10;99.90
31765;DHT22;18338;53.240;8.798;2022-12-07T13:08:46;4.20;99.90
31765;DHT22;18338;53.240;8.798;2022-12-07T13:11:29;4.20;99.90
31765;DHT22;18338;53.240;8.798;2022-12-07T13:14:37;4.20;99.90
31765;DHT22;18338;53.240;8.798;2022-12-07T13:17:54;4.20;99.90
31765;DHT22;18338;53.240;8.798;2022-12-07T13:20:06;4.30;99.90
31765;DHT22;18338;53.240;8.798;2022-12-07T13:22:44;4.30;99.90
31765;DHT22;18338;53.240;8.798;2022-12-07T13:25:31;4.30;99.90
31765;DHT22;18338;53.240;8.798;2022-12-07T13:28:20;4.40;99.90
31765;DHT22;18338;53.240;8.798;2022-12-07T13:31:19;4.60;99.90
31765;DHT22;18338;53.240;8.798;2022-12-07T13:33:48;4.70;99.90
31765;DHT22;18338;53.240;8.798;2022-12-07T13:36:23;4.80;99.90
31765;DHT22;18338;53.240;8.798;2022-12-07T13:39:00;4.90;99.90
31765;DHT22;18338;53.240;8.798;2022-12-07T13:41:36;5.00;99.90
31765;DHT22;18338;53.240;8.798;2022-12-07T13:44:10;4.90;99.90
31765;DHT22;18338;53.240;8.798;2022-12-07T13:49:26;4.70;99.90
31765;DHT22;18338;53.240;8.798;2022-12-07T13:51:54;4.70;99.90
31765;DHT22;18338;53.240;8.798;2022-12-07T13:54:21;4.60;99.90
31765;DHT22;18338;53.240;8.798;2022-12-07T13:56:50;4.60;99.90
31765;DHT22;18338;53.240;8.798;2022-12-07T13:59:23;4.50;99.90
31765;DHT22;18338;53.240;8.798;2022-12-07T14:01:52;4.40;99.90
31765;DHT22;18338;53.240;8.798;2022-12-07T14:04:30;4.30;99.90
31765;DHT22;18338;53.240;8.798;2022-12-07T14:06:58;4.20;99.90
31765;DHT22;18338;53.240;8.798;2022-12-07T14:09:26;4.10;99.90
31765;DHT22;18338;53.240;8.798;2022-12-07T14:11:55;4.00;99.90
31765;DHT22;18338;53.240;8.798;2022-12-07T14:14:28;3.80;99.90
31765;DHT22;18338;53.240;8.798;2022-12-07T14:17:19;3.70;99.90
31765;DHT22;18338;53.240;8.798;2022-12-07T14:19:54;3.40;99.90
31765;DHT22;18338;53.240;8.798;2022-12-07T14:27:33;3.10;99.90
31765;DHT22;18338;53.240;8.798;2022-12-07T14:30:04;3.10;99.90
31765;DHT22;18338;53.240;8.798;2022-12-07T14:32:34;3.10;99.90
31765;DHT22;18338;53.240;8.798;2022-12-07T14:35:11;3.10;99.90
31765;DHT22;18338;53.240;8.798;2022-12-07T14:37:40;3.00;99.90
31765;DHT22;18338;53.240;8.798;2022-12-07T14:40:12;2.90;99.90
31765;DHT22;18338;53.240;8.798;2022-12-07T14:42:39;2.80;99.90
31765;DHT22;18338;53.240;8.798;2022-12-07T14:45:10;2.70;99.90
31765;DHT22;18338;53.240;8.798;2022-12-07T14:47:39;2.50;99.90
31765;DHT22;18338;53.240;8.798;2022-12-07T14:50:25;2.30;99.90
31765;DHT22;18338;53.240;8.798;2022-12-07T14:53:00;2.10;99.90
31765;DHT22;18338;53.240;8.798;2022-12-07T14:55:48;2.10;99.90
31765;DHT22;18338;53.240;8.798;2022-12-07T14:58:16;2.10;99.90
31765;DHT22;18338;53.240;8.798;2022-12-07T15:00:44;2.10;99.90
31765;DHT22;18338;53.240;8.798;2022-12-07T15:03:11;2.20;99.90
31765;DHT22;18338;53.240;8.798;2022-12-07T15:05:40;2.10;99.90
31765;DHT22;18338;53.240;8.798;2022-12-07T15:08:10;2.10;99.90
31765;DHT22;18338;53.240;8.798;2022-12-07T15:10:38;2.10;99.90
31765;DHT22;18338;53.240;8.798;2022-12-07T15:13:06;2.10;99.90
31765;DHT22;18338;53.240;8.798;2022-12-07T15:15:54;2.20;99.90
31765;DHT22;18338;53.240;8.798;2022-12-07T15:18:22;2.20;99.90
31765;DHT22;18338;53.240;8.798;2022-12-07T15:20:50;2.30;99.90
31765;DHT22;18338;53.240;8.798;2022-12-07T15:23:16;2.30;99.90
31765;DHT22;18338;53.240;8.798;2022-12-07T15:25:45;2.20;99.90
31765;DHT22;18338;53.240;8.798;2022-12-07T15:28:12;2.20;99.90
31765;DHT22;18338;53.240;8.798;2022-12-07T15:30:41;2.20;99.90
31765;DHT22;18338;53.240;8.798;2022-12-07T15:33:10;2.20;99.90
31765;DHT22;18338;53.240;8.798;2022-12-07T15:35:42;2.20;99.90
31765;DHT22;18338;53.240;8.798;2022-12-07T15:38:09;2.20;99.90
31765;DHT22;18338;53.240;8.798;2022-12-07T15:40:36;2.10;99.90
31765;DHT22;18338;53.240;8.798;2022-12-07T15:43:03;2.10;99.90
31765;DHT22;18338;53.240;8.798;2022-12-07T15:45:30;2.10;99.90
31765;DHT22;18338;53.240;8.798;2022-12-07T15:47:57;2.10;99.90
31765;DHT22;18338;53.240;8.798;2022-12-07T15:50:44;2.10;99.90
31765;DHT22;18338;53.240;8.798;2022-12-07T15:53:11;2.20;99.90
31765;DHT22;18338;53.240;8.798;2022-12-07T15:55:40;2.20;99.90
31765;DHT22;18338;53.240;8.798;2022-12-07T15:58:07;2.30;99.90
31765;DHT22;18338;53.240;8.798;2022-12-07T16:00:34;2.40;99.90
31765;DHT22;18338;53.240;8.798;2022-12-07T16:03:01;2.40;99.90
31765;DHT22;18338;53.240;8.798;2022-12-07T16:05:27;2.50;99.90
31765;DHT22;18338;53.240;8.798;2022-12-07T16:07:54;2.50;99.90
31765;DHT22;18338;53.240;8.798;2022-12-07T16:10:21;2.60;99.90
31765;DHT22;18338;53.240;8.798;2022-12-07T16:12:48;2.70;99.90
31765;DHT22;18338;53.240;8.798;2022-12-07T16:15:14;2.70;99.90
31765;DHT22;18338;53.240;8.798;2022-12-07T16:17:48;2.70;99.90
31765;DHT22;18338;53.240;8.798;2022-12-07T16:20:15;2.70;99.90
31765;DHT22;18338;53.240;8.798;2022-12-07T16:22:41;2.70;99.90
31765;DHT22;18338;53.240;8.798;2022-12-07T16:25:08;2.70;99.90
31765;DHT22;18338;53.240;8.798;2022-12-07T16:27:35;2.70;99.90
31765;DHT22;18338;53.240;8.798;2022-12-07T16:30:02;2.70;99.90
31765;DHT22;18338;53.240;8.798;2022-12-07T16:32:30;2.80;99.90
31765;DHT22;18338;53.240;8.798;2022-12-07T16:34:56;2.80;99.90
31765;DHT22;18338;53.240;8.798;2022-12-07T16:37:26;2.70;99.90
31765;DHT22;18338;53.240;8.798;2022-12-07T16:39:53;2.80;99.90
31765;DHT22;18338;53.240;8.798;2022-12-07T16:42:19;2.70;99.90
31765;DHT22;18338;53.240;8.798;2022-12-07T16:44:46;2.70;99.90
31765;DHT22;18338;53.240;8.798;2022-12-07T16:47:17;2.60;99.90
31765;DHT22;18338;53.240;8.798;2022-12-07T16:50:16;2.60;99.90
31765;DHT22;18338;53.240;8.798;2022-12-07T16:52:42;2.60;99.90
31765;DHT22;18338;53.240;8.798;2022-12-07T16:55:09;2.60;99.90
31765;DHT22;18338;53.240;8.798;2022-12-07T16:57:35;2.60;99.90
31765;DHT22;18338;53.240;8.798;2022-12-07T17:00:03;2.60;99.90
31765;DHT22;18338;53.240;8.798;2022-12-07T17:02:30;2.50;99.90
31765;DHT22;18338;53.240;8.798;2022-12-07T17:04:57;2.50;99.90
31765;DHT22;18338;53.240;8.798;2022-12-07T17:07:23;2.40;99.90
31765;DHT22;18338;53.240;8.798;2022-12-07T17:09:52;2.40;99.90
31765;DHT22;18338;53.240;8.798;2022-12-07T17:12:18;2.30;99.90
31765;DHT22;18338;53.240;8.798;2022-12-07T17:14:45;2.20;99.90
31765;DHT22;18338;53.240;8.798;2022-12-07T17:17:31;2.20;99.90
31765;DHT22;18338;53.240;8.798;2022-12-07T17:19:58;2.10;99.90
31765;DHT22;18338;53.240;8.798;2022-12-07T17:22:25;2.10;99.90
31765;DHT22;18338;53.240;8.798;2022-12-07T17:24:52;2.00;99.90
31765;DHT22;18338;53.240;8.798;2022-12-07T17:27:19;2.00;99.90
31765;DHT22;18338;53.240;8.798;2022-12-07T17:29:45;1.90;99.90
31765;DHT22;18338;53.240;8.798;2022-12-07T17:32:12;1.90;99.90
31765;DHT22;18338;53.240;8.798;2022-12-07T17:34:39;1.90;99.90
31765;DHT22;18338;53.240;8.798;2022-12-07T17:37:05;1.90;99.90
31765;DHT22;18338;53.240;8.798;2022-12-07T17:39:32;1.90;99.90
31765;DHT22;18338;53.240;8.798;2022-12-07T17:41:59;1.90;99.90
31765;DHT22;18338;53.240;8.798;2022-12-07T17:44:44;1.80;99.90
31765;DHT22;18338;53.240;8.798;2022-12-07T17:47:11;1.70;99.90
31765;DHT22;18338;53.240;8.798;2022-12-07T17:49:38;1.70;99.90
31765;DHT22;18338;53.240;8.798;2022-12-07T17:52:05;1.70;99.90
31765;DHT22;18338;53.240;8.798;2022-12-07T17:54:50;1.60;99.90
31765;DHT22;18338;53.240;8.798;2022-12-07T17:57:17;1.60;99.90
31765;DHT22;18338;53.240;8.798;2022-12-07T17:59:44;1.60;99.90
31765;DHT22;18338;53.240;8.798;2022-12-07T18:02:12;1.60;99.90
31765;DHT22;18338;53.240;8.798;2022-12-07T18:04:40;1.70;99.90
31765;DHT22;18338;53.240;8.798;2022-12-07T18:07:09;1.70;99.90
31765;DHT22;18338;53.240;8.798;2022-12-07T18:09:36;1.60;99.90
31765;DHT22;18338;53.240;8.798;2022-12-07T18:12:05;1.60;99.90
31765;DHT22;18338;53.240;8.798;2022-12-07T18:14:33;1.70;99.90
31765;DHT22;18338;53.240;8.798;2022-12-07T18:17:01;1.70;99.90
31765;DHT22;18338;53.240;8.798;2022-12-07T18:19:29;1.80;99.90
31765;DHT22;18338;53.240;8.798;2022-12-07T18:21:56;1.80;99.90
31765;DHT22;18338;53.240;8.798;2022-12-07T18:24:23;1.80;99.90
31765;DHT22;18338;53.240;8.798;2022-12-07T18:26:49;1.80;99.90
31765;DHT22;18338;53.240;8.798;2022-12-07T18:29:18;1.90;99.90